createdAt,value
2022-08-09T00:00:14.840Z,92.70
2022-08-09T00:02:50.025Z,93.10
2022-08-09T00:06:18.348Z,93.00
2022-08-09T00:08:13.113Z,93.30
2022-08-09T00:11:00.345Z,93.60
2022-08-09T00:13:31.706Z,93.70
2022-08-09T00:16:02.850Z,93.70
2022-08-09T00:18:36.244Z,93.90
2022-08-09T00:21:07.944Z,94.40
2022-08-09T00:23:54.874Z,94.60
2022-08-09T00:26:32.767Z,95.00
2022-08-09T00:29:02.389Z,95.30
2022-08-09T00:32:00.957Z,95.60
2022-08-09T00:34:24.681Z,95.80
2022-08-09T00:36:53.669Z,95.90
2022-08-09T00:40:13.836Z,96.10
2022-08-09T00:44:15.995Z,96.30
2022-08-09T00:44:57.983Z,96.20
2022-08-09T00:47:26.043Z,96.20
2022-08-09T00:50:03.135Z,96.30
2022-08-09T00:52:31.151Z,96.70
2022-08-09T00:55:01.157Z,96.80
2022-08-09T00:57:34.814Z,96.90
2022-08-09T01:00:22.092Z,97.10
2022-08-09T01:03:15.312Z,97.30
2022-08-09T01:05:56.964Z,97.60
2022-08-09T01:08:49.435Z,97.80
2022-08-09T01:11:32.409Z,97.70
2022-08-09T01:14:15.156Z,98.10
2022-08-09T01:16:49.384Z,98.10
2022-08-09T01:19:39.700Z,98.20
2022-08-09T01:22:23.663Z,98.40
2022-08-09T01:25:12.357Z,98.50
2022-08-09T01:27:44.603Z,98.60
2022-08-09T01:30:33.646Z,98.70
2022-08-09T01:33:12.489Z,99.00
2022-08-09T01:35:53.492Z,99.30
2022-08-09T01:38:26.129Z,99.40
2022-08-09T01:41:05.630Z,99.50
2022-08-09T01:43:42.277Z,99.50
2022-08-09T01:46:26.765Z,99.70
2022-08-09T01:49:10.177Z,99.80
2022-08-09T01:51:39.233Z,99.90
2022-08-09T01:54:18.522Z,99.90
2022-08-09T01:56:51.721Z,99.90
2022-08-09T01:59:20.271Z,99.90
2022-08-09T02:01:59.442Z,99.90
2022-08-09T02:04:30.018Z,99.90
2022-08-09T02:07:18.245Z,99.90
2022-08-09T02:10:13.522Z,99.90
2022-08-09T02:12:43.631Z,99.90
2022-08-09T02:15:17.005Z,99.90
2022-08-09T02:18:01.630Z,99.90
2022-08-09T02:20:41.495Z,99.90
2022-08-09T02:23:19.480Z,99.90
2022-08-09T02:25:55.651Z,99.90
2022-08-09T02:28:34.341Z,99.90
2022-08-09T02:31:18.858Z,99.90
2022-08-09T02:34:06.788Z,99.90
2022-08-09T02:36:41.989Z,99.90
2022-08-09T02:39:20.031Z,99.90
2022-08-09T02:42:08.678Z,99.90
2022-08-09T02:44:42.558Z,99.90
2022-08-09T02:47:14.020Z,99.90
2022-08-09T02:50:01.132Z,99.90
2022-08-09T02:52:39.534Z,99.90
2022-08-09T02:55:19.831Z,99.90
2022-08-09T02:58:00.342Z,99.90
2022-08-09T03:00:58.219Z,99.90
2022-08-09T03:03:59.619Z,99.90
2022-08-09T03:06:22.778Z,99.90
2022-08-09T03:08:53.808Z,99.90
2022-08-09T03:12:04.281Z,99.90
2022-08-09T03:14:13.828Z,99.90
2022-08-09T03:16:48.322Z,99.90
2022-08-09T03:19:57.618Z,99.90
2022-08-09T03:22:12.321Z,99.90
2022-08-09T03:25:03.320Z,99.90
2022-08-09T03:27:51.014Z,99.90
2022-08-09T03:30:29.364Z,99.90
2022-08-09T03:33:17.238Z,99.90
2022-08-09T03:36:13.348Z,99.90
2022-08-09T03:38:43.033Z,99.90
2022-08-09T03:41:15.472Z,99.90
2022-08-09T03:44:02.882Z,99.90
2022-08-09T03:46:33.185Z,99.90
2022-08-09T03:49:04.046Z,99.90
2022-08-09T03:51:44.052Z,99.90
2022-08-09T03:54:31.360Z,99.90
2022-08-09T03:57:17.933Z,99.90
2022-08-09T03:59:53.365Z,99.90
2022-08-09T04:02:26.617Z,99.90
2022-08-09T04:05:06.687Z,99.90
2022-08-09T04:07:56.589Z,99.90
2022-08-09T04:10:30.563Z,99.90
2022-08-09T04:13:03.961Z,99.90
2022-08-09T04:16:18.208Z,99.90
2022-08-09T04:18:21.379Z,99.90
2022-08-09T04:20:54.592Z,99.90
2022-08-09T04:23:24.442Z,99.90
2022-08-09T04:25:53.542Z,99.90
2022-08-09T04:28:33.043Z,99.90
2022-08-09T04:31:05.916Z,99.90
2022-08-09T04:33:51.754Z,99.90
2022-08-09T04:36:25.989Z,99.90
2022-08-09T04:38:59.187Z,99.90
2022-08-09T04:41:33.147Z,99.90
2022-08-09T04:44:06.937Z,99.90
2022-08-09T04:47:00.203Z,99.90
2022-08-09T04:49:52.623Z,99.90
2022-08-09T04:52:27.830Z,99.90
2022-08-09T04:55:00.488Z,99.90
2022-08-09T04:57:59.432Z,99.90
2022-08-09T05:00:16.810Z,99.90
2022-08-09T05:02:48.655Z,99.90
2022-08-09T05:05:31.718Z,99.90
2022-08-09T05:08:14.015Z,99.90
2022-08-09T05:10:42.769Z,99.90
2022-08-09T05:13:12.611Z,99.90
2022-08-09T05:15:48.350Z,99.90
2022-08-09T05:18:42.869Z,99.90
2022-08-09T05:21:24.321Z,99.90
2022-08-09T05:23:58.030Z,99.90
2022-08-09T05:26:36.408Z,99.90
2022-08-09T05:29:17.397Z,99.90
2022-08-09T05:31:56.405Z,99.90
2022-08-09T05:34:31.030Z,99.90
2022-08-09T05:37:07.041Z,99.90
2022-08-09T05:39:44.196Z,99.90
2022-08-09T05:42:17.448Z,99.90
2022-08-09T05:44:54.000Z,99.90
2022-08-09T05:47:23.784Z,99.90
2022-08-09T05:50:30.835Z,99.90
2022-08-09T05:52:42.264Z,99.90
2022-08-09T05:55:20.975Z,99.90
2022-08-09T05:57:56.337Z,99.90
2022-08-09T06:00:32.903Z,99.90
2022-08-09T06:03:03.511Z,99.90
2022-08-09T06:05:57.074Z,99.90
2022-08-09T06:08:24.693Z,99.90
2022-08-09T06:10:56.162Z,99.90
2022-08-09T06:13:25.686Z,99.90
2022-08-09T06:15:55.784Z,99.90
2022-08-09T06:18:25.617Z,99.90
2022-08-09T06:20:57.635Z,99.90
2022-08-09T06:23:57.936Z,99.90
2022-08-09T06:26:22.208Z,99.90
2022-08-09T06:29:04.574Z,99.90
2022-08-09T06:31:40.095Z,99.90
2022-08-09T06:34:22.676Z,99.90
2022-08-09T06:36:59.103Z,99.90
2022-08-09T06:39:48.181Z,99.90
2022-08-09T06:42:24.415Z,99.90
2022-08-09T06:44:58.389Z,99.90
2022-08-09T06:47:39.448Z,99.90
2022-08-09T06:50:13.610Z,99.90
2022-08-09T06:52:48.850Z,99.90
2022-08-09T06:55:22.462Z,99.90
2022-08-09T06:58:02.867Z,99.90
2022-08-09T07:00:49.736Z,99.90
2022-08-09T07:03:27.815Z,99.40
2022-08-09T07:06:03.802Z,99.20
2022-08-09T07:08:34.382Z,99.10
2022-08-09T07:11:03.587Z,98.80
2022-08-09T07:13:31.391Z,98.20
2022-08-09T07:16:42.429Z,97.40
2022-08-09T07:19:02.771Z,97.40
2022-08-09T07:21:31.230Z,96.10
2022-08-09T07:24:02.037Z,93.90
2022-08-09T07:26:35.210Z,94.10
2022-08-09T07:29:11.914Z,93.80
2022-08-09T07:31:45.175Z,93.50
2022-08-09T07:34:20.517Z,93.70
2022-08-09T07:36:50.315Z,93.60
2022-08-09T07:39:40.952Z,92.80
2022-08-09T07:42:09.297Z,92.00
2022-08-09T07:44:52.473Z,90.80
2022-08-09T07:47:23.263Z,89.90
2022-08-09T07:50:08.200Z,89.00
2022-08-09T07:52:38.320Z,88.60
2022-08-09T07:55:09.489Z,90.10
2022-08-09T07:57:37.530Z,86.40
2022-08-09T08:00:35.931Z,88.30
2022-08-09T08:03:04.840Z,85.50
2022-08-09T08:05:53.608Z,86.20
2022-08-09T08:09:00.513Z,84.30
2022-08-09T08:12:08.874Z,82.70
2022-08-09T08:13:56.623Z,80.90
2022-08-09T08:16:31.471Z,80.40
2022-08-09T08:19:03.050Z,78.80
2022-08-09T08:21:32.086Z,79.40
2022-08-09T08:24:01.217Z,79.70
2022-08-09T08:26:54.456Z,76.50
2022-08-09T08:29:20.453Z,77.50
2022-08-09T08:32:04.028Z,76.90
2022-08-09T08:34:36.068Z,76.00
2022-08-09T08:37:04.967Z,73.40
2022-08-09T08:39:38.229Z,73.40
2022-08-09T08:42:15.770Z,74.40
2022-08-09T08:44:44.086Z,72.80
2022-08-09T08:47:16.778Z,71.80
2022-08-09T08:49:48.272Z,70.60
2022-08-09T08:55:19.040Z,72.40
2022-08-09T08:57:56.512Z,72.40
2022-08-09T09:00:30.492Z,69.60
2022-08-09T09:03:11.215Z,69.70
2022-08-09T09:06:02.974Z,70.40
2022-08-09T09:08:37.887Z,70.30
2022-08-09T09:11:17.188Z,70.40
2022-08-09T09:13:57.621Z,69.00
2022-08-09T09:16:34.906Z,69.60
2022-08-09T09:19:40.668Z,66.50
2022-08-09T09:22:16.081Z,68.10
2022-08-09T09:25:00.761Z,67.40
2022-08-09T09:28:05.905Z,65.70
2022-08-09T09:30:40.067Z,64.10
2022-08-09T09:33:15.863Z,67.90
2022-08-09T09:36:01.606Z,68.50
2022-08-09T09:38:42.913Z,65.30
2022-08-09T09:41:10.902Z,65.10
2022-08-09T09:43:41.459Z,66.10
2022-08-09T09:46:42.850Z,64.10
2022-08-09T09:49:18.718Z,65.30
2022-08-09T09:52:33.459Z,65.30
2022-08-09T09:55:24.305Z,65.60
2022-08-09T09:58:16.951Z,65.20
2022-08-09T10:00:54.059Z,65.00
2022-08-09T10:03:58.121Z,63.20
2022-08-09T10:06:42.812Z,63.90
2022-08-09T10:09:22.564Z,67.50
2022-08-09T10:12:14.355Z,65.20
2022-08-09T10:14:51.496Z,63.50
2022-08-09T10:17:50.895Z,63.00
2022-08-09T10:20:27.111Z,63.70
2022-08-09T10:23:20.467Z,62.90
2022-08-09T10:26:07.110Z,62.90
2022-08-09T10:28:40.257Z,63.30
2022-08-09T10:34:08.729Z,63.60
2022-08-09T10:36:49.826Z,60.60
2022-08-09T10:39:19.473Z,61.70
2022-08-09T10:41:47.568Z,60.00
2022-08-09T10:44:24.789Z,58.90
2022-08-09T10:47:14.145Z,59.40
2022-08-09T10:50:31.267Z,59.60
2022-08-09T10:53:10.694Z,59.80
2022-08-09T10:55:55.476Z,59.20
2022-08-09T10:58:34.824Z,58.70
2022-08-09T11:03:02.187Z,58.70
2022-08-09T11:04:31.726Z,58.60
2022-08-09T11:07:02.946Z,59.00
2022-08-09T11:09:47.379Z,58.30
2022-08-09T11:12:29.569Z,57.80
2022-08-09T11:15:18.945Z,59.70
2022-08-09T11:17:56.815Z,59.30
2022-08-09T11:20:49.772Z,59.90
2022-08-09T11:23:24.045Z,58.70
2022-08-09T11:25:57.443Z,59.00
2022-08-09T11:28:34.638Z,60.60
2022-08-09T11:31:50.488Z,61.70
2022-08-09T11:34:44.026Z,59.00
2022-08-09T11:37:25.345Z,60.60
2022-08-09T11:40:05.018Z,59.30
2022-08-09T11:42:48.687Z,58.60
2022-08-09T11:45:37.885Z,58.30
2022-08-09T11:48:28.130Z,56.50
2022-08-09T11:52:48.826Z,56.30
2022-08-09T11:54:34.710Z,57.50
2022-08-09T11:57:47.416Z,57.70
2022-08-09T12:00:28.137Z,57.20
2022-08-09T12:02:58.345Z,57.40
2022-08-09T12:05:42.319Z,55.60
2022-08-09T12:08:21.679Z,56.80
2022-08-09T12:10:55.314Z,58.80
2022-08-09T12:14:08.270Z,57.10
2022-08-09T12:16:37.813Z,59.00
2022-08-09T12:19:09.665Z,61.20
2022-08-09T12:21:50.358Z,58.30
2022-08-09T12:24:26.342Z,59.30
2022-08-09T12:29:10.988Z,59.50
2022-08-09T12:30:01.846Z,57.40
2022-08-09T12:32:42.182Z,57.10
2022-08-09T12:35:12.357Z,57.50
2022-08-09T12:37:49.993Z,58.40
2022-08-09T12:40:23.308Z,58.80
2022-08-09T12:42:53.498Z,60.30
2022-08-09T12:45:34.267Z,58.30
2022-08-09T12:48:20.431Z,58.70
2022-08-09T12:50:59.379Z,58.70
2022-08-09T12:53:37.662Z,58.00
2022-08-09T12:56:39.645Z,57.40
2022-08-09T12:59:20.877Z,58.30
2022-08-09T13:02:01.874Z,57.80
2022-08-09T13:04:37.664Z,56.60
2022-08-09T13:07:14.320Z,58.70
2022-08-09T13:09:43.447Z,59.80
2022-08-09T13:12:22.453Z,57.20
2022-08-09T13:14:53.631Z,57.50
2022-08-09T13:17:44.471Z,57.20
2022-08-09T13:20:20.234Z,56.70
2022-08-09T13:23:05.204Z,57.30
2022-08-09T13:25:54.790Z,58.00
2022-08-09T13:28:33.657Z,57.70
2022-08-09T13:32:14.406Z,57.20
2022-08-09T13:33:59.156Z,57.70
2022-08-09T13:36:41.713Z,57.40
2022-08-09T13:41:19.071Z,56.40
2022-08-09T13:42:15.302Z,56.80
2022-08-09T13:44:44.218Z,59.20
2022-08-09T13:47:31.182Z,58.50
2022-08-09T13:50:18.263Z,55.50
2022-08-09T13:52:55.138Z,56.20
2022-08-09T13:55:22.769Z,56.80
2022-08-09T13:57:56.099Z,57.20
2022-08-09T14:00:29.738Z,56.20
2022-08-09T14:03:04.462Z,58.40
2022-08-09T14:05:59.816Z,58.70
2022-08-09T14:08:30.426Z,59.40
2022-08-09T14:10:58.017Z,57.00
2022-08-09T14:14:22.356Z,56.50
2022-08-09T14:16:28.372Z,57.40
2022-08-09T14:18:57.172Z,55.90
2022-08-09T14:21:32.212Z,57.40
2022-08-09T14:24:05.440Z,57.70
2022-08-09T14:26:38.012Z,57.20
2022-08-09T14:29:25.758Z,58.60
2022-08-09T14:31:57.544Z,56.20
2022-08-09T14:34:31.263Z,57.30
2022-08-09T14:37:07.541Z,57.40
2022-08-09T14:39:47.993Z,57.30
2022-08-09T14:42:30.951Z,57.10
2022-08-09T14:46:56.032Z,57.50
2022-08-09T14:47:57.494Z,57.80
2022-08-09T14:50:32.540Z,58.10
2022-08-09T14:53:06.378Z,57.30
2022-08-09T14:55:49.880Z,57.20
2022-08-09T14:58:20.586Z,57.30
2022-08-09T15:00:52.076Z,57.60
2022-08-09T15:03:20.905Z,56.70
2022-08-09T15:05:56.735Z,58.00
2022-08-09T15:08:25.681Z,57.90
2022-08-09T15:11:00.691Z,58.40
2022-08-09T15:13:47.813Z,57.70
2022-08-09T15:16:16.721Z,59.10
2022-08-09T15:18:43.993Z,58.30
2022-08-09T15:21:56.063Z,58.40
2022-08-09T15:24:12.701Z,59.40
2022-08-09T15:26:46.763Z,57.70
2022-08-09T15:30:55.875Z,58.30
2022-08-09T15:32:02.923Z,58.50
2022-08-09T15:34:34.585Z,59.20
2022-08-09T15:37:23.815Z,58.80
2022-08-09T15:39:54.811Z,58.80
2022-08-09T15:42:22.842Z,59.50
2022-08-09T15:44:53.573Z,59.60
2022-08-09T15:47:31.855Z,60.70
2022-08-09T15:50:14.830Z,61.40
2022-08-09T15:52:54.650Z,61.60
2022-08-09T15:55:31.416Z,61.60
2022-08-09T15:58:27.337Z,62.30
2022-08-09T16:00:56.776Z,61.60
2022-08-09T16:03:29.459Z,61.80
2022-08-09T16:06:06.785Z,61.90
2022-08-09T16:08:59.132Z,59.90
2022-08-09T16:11:33.693Z,60.50
2022-08-09T16:14:07.695Z,61.90
2022-08-09T16:16:41.994Z,60.70
2022-08-09T16:19:19.312Z,60.60
2022-08-09T16:21:52.050Z,61.30
2022-08-09T16:24:33.022Z,62.00
2022-08-09T16:27:05.212Z,61.90
2022-08-09T16:29:37.022Z,62.90
2022-08-09T16:32:18.803Z,62.10
2022-08-09T16:34:58.326Z,62.40
2022-08-09T16:37:56.084Z,62.10
2022-08-09T16:40:20.639Z,61.00
2022-08-09T16:43:12.414Z,62.30
2022-08-09T16:45:44.297Z,63.50
2022-08-09T16:48:39.805Z,63.60
2022-08-09T16:51:08.152Z,64.30
2022-08-09T16:54:25.103Z,64.10
2022-08-09T16:56:34.010Z,64.40
2022-08-09T16:59:06.473Z,64.30
2022-08-09T17:01:35.579Z,64.10
2022-08-09T17:04:06.668Z,63.20
2022-08-09T17:08:40.154Z,63.70
2022-08-09T17:09:45.901Z,63.90
2022-08-09T17:12:09.466Z,65.20
2022-08-09T17:14:36.751Z,65.40
2022-08-09T17:17:17.253Z,64.90
2022-08-09T17:20:32.632Z,63.90
2022-08-09T17:22:49.847Z,63.20
2022-08-09T17:25:22.295Z,63.20
2022-08-09T17:27:54.558Z,63.50
2022-08-09T17:30:28.334Z,63.90
2022-08-09T17:33:05.225Z,64.20
2022-08-09T17:35:49.129Z,62.80
2022-08-09T17:38:29.271Z,64.30
2022-08-09T17:41:02.838Z,64.20
2022-08-09T17:43:34.509Z,64.00
2022-08-09T17:46:10.012Z,64.30
2022-08-09T17:48:51.709Z,65.10
2022-08-09T17:51:20.861Z,64.80
2022-08-09T17:53:54.709Z,64.90
2022-08-09T17:56:29.265Z,65.70
2022-08-09T17:59:03.146Z,66.20
2022-08-09T18:02:03.252Z,66.40
2022-08-09T18:04:26.652Z,65.50
2022-08-09T18:06:56.297Z,65.20
2022-08-09T18:09:40.191Z,66.30
2022-08-09T18:12:20.143Z,65.90
2022-08-09T18:14:54.187Z,66.90
2022-08-09T18:18:01.770Z,66.70
2022-08-09T18:20:54.790Z,66.20
2022-08-09T18:23:05.549Z,66.60
2022-08-09T18:25:52.597Z,67.20
2022-08-09T18:30:35.403Z,66.70
2022-08-09T18:31:14.191Z,67.00
2022-08-09T18:33:53.691Z,67.40
2022-08-09T18:36:25.822Z,67.70
2022-08-09T18:39:05.276Z,67.70
2022-08-09T18:41:34.377Z,68.30
2022-08-09T18:44:12.992Z,68.10
2022-08-09T18:46:51.158Z,68.60
2022-08-09T18:49:28.597Z,68.70
2022-08-09T18:51:59.722Z,69.10
2022-08-09T18:54:29.897Z,69.50
2022-08-09T18:57:05.193Z,68.60
2022-08-09T18:59:48.837Z,70.10
2022-08-09T19:02:19.796Z,69.40
2022-08-09T19:05:15.325Z,69.90
2022-08-09T19:07:35.221Z,69.70
2022-08-09T19:10:14.533Z,71.70
2022-08-09T19:12:52.990Z,71.90
2022-08-09T19:15:32.080Z,72.50
2022-08-09T19:17:59.893Z,72.00
2022-08-09T19:20:34.056Z,71.50
2022-08-09T19:23:05.470Z,71.80
2022-08-09T19:26:01.330Z,72.60
2022-08-09T19:28:28.910Z,72.40
2022-08-09T19:30:56.519Z,72.50
2022-08-09T19:33:24.329Z,72.10
2022-08-09T19:35:56.931Z,72.50
2022-08-09T19:38:27.234Z,72.60
2022-08-09T19:40:57.536Z,72.10
2022-08-09T19:44:01.304Z,72.80
2022-08-09T19:46:17.214Z,72.60
2022-08-09T19:50:04.605Z,73.10
2022-08-09T19:51:55.936Z,73.60
2022-08-09T19:54:27.434Z,73.80
2022-08-09T19:56:59.027Z,73.90
2022-08-09T19:59:58.966Z,74.00
2022-08-09T20:04:16.790Z,74.50
2022-08-09T20:05:10.332Z,74.40
2022-08-09T20:07:59.760Z,75.00
2022-08-09T20:10:36.408Z,74.50
2022-08-09T20:13:06.607Z,74.70
2022-08-09T20:16:35.698Z,74.80
2022-08-09T20:18:27.969Z,75.10
2022-08-09T20:20:59.022Z,75.30
2022-08-09T20:23:39.305Z,76.40
2022-08-09T20:26:09.743Z,76.50
2022-08-09T20:28:48.616Z,77.30
2022-08-09T20:31:17.843Z,77.20
2022-08-09T20:33:45.718Z,77.50
2022-08-09T20:36:13.839Z,77.60
2022-08-09T20:39:18.595Z,78.00
2022-08-09T20:41:35.579Z,78.10
2022-08-09T20:44:10.392Z,78.50
2022-08-09T20:46:44.331Z,78.60
2022-08-09T20:49:16.654Z,79.30
2022-08-09T20:51:50.762Z,80.10
2022-08-09T20:54:18.824Z,80.00
2022-08-09T20:56:49.440Z,79.90
2022-08-09T20:59:50.365Z,79.80
2022-08-09T21:02:05.528Z,80.40
2022-08-09T21:05:55.151Z,80.30
2022-08-09T21:07:24.921Z,80.40
2022-08-09T21:09:58.755Z,81.00
2022-08-09T21:15:17.678Z,82.00
2022-08-09T21:18:21.268Z,82.10
2022-08-09T21:20:41.190Z,82.50
2022-08-09T21:23:13.216Z,82.30
2022-08-09T21:25:56.312Z,82.30
2022-08-09T21:28:34.576Z,82.60
2022-08-09T21:31:17.263Z,82.00
2022-08-09T21:33:50.556Z,81.90
2022-08-09T21:36:23.462Z,82.10
2022-08-09T21:38:57.430Z,82.00
2022-08-09T21:42:03.690Z,82.00
2022-08-09T21:44:33.238Z,83.00
2022-08-09T21:47:08.507Z,83.30
2022-08-09T21:49:43.137Z,83.80
2022-08-09T21:52:16.525Z,83.80
2022-08-09T21:55:02.778Z,84.10
2022-08-09T21:57:59.182Z,83.70
2022-08-09T22:00:33.224Z,83.70
2022-08-09T22:03:19.118Z,83.40
2022-08-09T22:05:52.991Z,83.80
2022-08-09T22:08:23.041Z,83.90
2022-08-09T22:11:48.842Z,83.30
2022-08-09T22:13:43.983Z,84.30
2022-08-09T22:16:11.918Z,83.90
2022-08-09T22:18:53.157Z,83.40
2022-08-09T22:21:50.136Z,83.20
2022-08-09T22:24:24.237Z,83.10
2022-08-09T22:26:55.539Z,82.80
2022-08-09T22:29:27.037Z,82.80
2022-08-09T22:32:00.235Z,82.60
2022-08-09T22:34:28.577Z,82.50
2022-08-09T22:36:59.643Z,82.40
2022-08-09T22:39:57.048Z,82.30
2022-08-09T22:42:22.210Z,82.50
2022-08-09T22:45:00.243Z,82.70
2022-08-09T22:48:13.620Z,83.20
2022-08-09T22:50:31.888Z,83.50
2022-08-09T22:53:03.546Z,83.60
2022-08-09T22:56:06.384Z,84.10
2022-08-09T22:58:32.268Z,84.40
2022-08-09T23:01:06.189Z,85.00
2022-08-09T23:04:03.596Z,85.20
2022-08-09T23:06:35.635Z,85.30
2022-08-09T23:09:06.972Z,85.10
2022-08-09T23:11:35.262Z,85.90
2022-08-09T23:14:03.613Z,86.60
2022-08-09T23:16:31.955Z,86.70
2022-08-09T23:18:59.578Z,86.60
2022-08-09T23:21:33.505Z,86.80
2022-08-09T23:24:06.574Z,86.90
2022-08-09T23:26:38.692Z,87.20
2022-08-09T23:29:13.626Z,87.20
2022-08-09T23:31:42.701Z,87.10
2022-08-09T23:34:10.481Z,87.20
2022-08-09T23:36:37.785Z,87.00
2022-08-09T23:39:08.601Z,87.60
2022-08-09T23:41:38.488Z,87.60
2022-08-09T23:44:08.027Z,87.70
2022-08-09T23:46:35.353Z,87.90
2022-08-09T23:49:05.632Z,88.00
2022-08-09T23:51:35.013Z,88.50
2022-08-09T23:54:04.378Z,88.70
2022-08-09T23:56:53.058Z,89.40
2022-08-09T23:59:44.111Z,88.60
